Time;durP1;ratioP1;P1;durP2;ratioP2;P2;SDS_P1;SDS_P2;PMS_P1;PMS_P2;Temp;Humidity;BMP_temperature;BMP_pressure;BME280_temperature;BME280_humidity;BME280_pressure;Samples;Min_cycle;Max_cycle;Signal;HPM_P1;HPM_P2
2022/04/13 00:02:56;;;;;;;13.90;6.63;;;;;;;11.37;40.35;100939.50;5411554;32;34929;-73
2022/04/13 00:05:59;;;;;;;13.70;7.05;;;;;;;10.95;42.10;100938.25;5391585;32;34764;-72
2022/04/13 00:09:02;;;;;;;15.87;6.90;;;;;;;10.86;42.71;100942.06;5412531;32;35488;-72
2022/04/13 00:12:04;;;;;;;14.80;7.60;;;;;;;10.27;43.74;100945.56;5414502;32;35686;-66
2022/04/13 00:15:08;;;;;;;15.40;7.53;;;;;;;11.14;42.58;100949.91;5413243;32;34624;-66
2022/04/13 00:18:10;;;;;;;17.60;8.30;;;;;;;11.36;42.83;100939.56;5402761;32;34889;-66
2022/04/13 00:21:12;;;;;;;17.07;8.97;;;;;;;10.67;45.18;100947.00;5395294;32;35134;-67
2022/04/13 00:24:14;;;;;;;23.53;9.37;;;;;;;9.97;46.61;100957.75;5424410;32;35032;-72
2022/04/13 00:27:16;;;;;;;18.43;9.13;;;;;;;9.41;48.84;100961.91;5399162;32;35007;-66
2022/04/13 00:30:18;;;;;;;18.20;9.30;;;;;;;9.73;48.21;100959.31;5412561;32;35354;-71
2022/04/13 00:33:20;;;;;;;18.33;8.93;;;;;;;9.82;48.30;100954.72;5397730;32;35485;-72
2022/04/13 00:36:23;;;;;;;19.27;9.73;;;;;;;10.38;46.72;100950.53;5411878;32;44022;-71
2022/04/13 00:39:25;;;;;;;21.13;10.10;;;;;;;10.40;46.28;100947.84;5400322;32;33972;-72
2022/04/13 00:42:29;;;;;;;17.55;9.73;;;;;;;9.89;48.04;100948.38;5400028;32;34510;-68
2022/04/13 00:45:31;;;;;;;14.90;9.10;;;;;;;10.44;46.31;100952.97;5421610;32;37331;-71
2022/04/13 00:48:39;;;;;;;20.33;9.77;;;;;;;10.02;47.29;100947.12;5386468;32;35178;-66
2022/04/13 00:51:41;;;;;;;18.67;9.90;;;;;;;9.91;47.53;100957.06;5401635;32;34411;-66
2022/04/13 00:54:47;;;;;;;18.33;9.20;;;;;;;9.77;48.25;100953.06;5376618;32;34861;-72
2022/04/13 00:57:49;;;;;;;16.87;9.70;;;;;;;9.91;47.49;100955.31;5383113;32;35100;-67
2022/04/13 01:00:56;;;;;;;16.37;9.43;;;;;;;9.39;48.77;100959.28;5398793;32;45259;-67
2022/04/13 01:04:00;;;;;;;21.50;9.73;;;;;;;8.79;49.92;100959.00;5390684;32;34244;-66
2022/04/13 01:07:06;;;;;;;16.77;8.90;;;;;;;9.03;49.37;100957.59;5413431;32;34545;-66
2022/04/13 01:10:09;;;;;;;16.50;8.63;;;;;;;9.13;48.62;100966.94;5392138;32;34596;-71
2022/04/13 01:13:12;;;;;;;16.93;9.63;;;;;;;8.70;49.37;100967.09;5405248;32;34977;-66
2022/04/13 01:16:16;;;;;;;15.70;9.00;;;;;;;9.30;47.85;100964.78;5403119;32;35505;-67
2022/04/13 01:19:19;;;;;;;21.00;9.60;;;;;;;10.09;45.87;100963.59;5387250;32;34910;-71
2022/04/13 01:22:22;;;;;;;17.53;9.20;;;;;;;10.31;45.39;100954.25;5399905;32;36975;-72
2022/04/13 01:25:24;;;;;;;17.83;9.13;;;;;;;10.58;45.09;100960.44;5403931;32;34702;-72
2022/04/13 01:28:26;;;;;;;17.70;9.30;;;;;;;10.54;45.17;100964.91;5420634;32;34989;-66
2022/04/13 01:31:34;;;;;;;17.03;8.67;;;;;;;10.15;46.33;100959.03;5400858;32;36479;-73
2022/04/13 01:34:37;;;;;;;20.30;9.30;;;;;;;9.59;47.93;100964.03;5396399;32;35480;-72
2022/04/13 01:37:39;;;;;;;17.73;8.68;;;;;;;9.44;48.45;100972.31;5403199;32;36598;-72
2022/04/13 01:40:42;;;;;;;16.23;8.57;;;;;;;9.42;47.90;100980.22;5404326;32;35527;-68
2022/04/13 01:43:45;;;;;;;17.58;8.85;;;;;;;10.57;45.10;100970.09;5405880;32;34509;-66
2022/04/13 01:46:47;;;;;;;18.90;9.13;;;;;;;9.92;46.20;100982.44;5401061;32;37130;-66
2022/04/13 01:49:49;;;;;;;18.23;9.43;;;;;;;10.07;46.25;100983.78;5424825;32;34723;-72
2022/04/13 01:52:52;;;;;;;16.93;8.93;;;;;;;10.36;45.48;100981.22;5373408;32;44256;-72
2022/04/13 01:55:54;;;;;;;17.73;8.20;;;;;;;10.19;46.02;100989.56;5399864;32;34549;-72
2022/04/13 01:58:56;;;;;;;16.40;8.53;;;;;;;10.17;45.98;100990.50;5377547;32;35142;-68
2022/04/13 02:01:58;;;;;;;18.03;8.53;;;;;;;9.77;47.28;101000.31;5402114;32;35479;-66
2022/04/13 02:05:01;;;;;;;16.40;8.47;;;;;;;10.12;46.47;100998.53;5407775;32;35344;-72
2022/04/13 02:08:03;;;;;;;14.37;7.73;;;;;;;10.32;45.45;100994.50;5386089;32;34920;-66
2022/04/13 02:11:06;;;;;;;17.33;8.87;;;;;;;9.45;47.36;100997.62;5408266;32;34615;-67
2022/04/13 02:14:08;;;;;;;15.10;8.23;;;;;;;8.91;48.73;101000.69;5408319;32;35813;-74
2022/04/13 02:17:14;;;;;;;14.90;8.43;;;;;;;8.44;50.85;101001.69;5406249;32;34802;-73
2022/04/13 02:20:16;;;;;;;14.03;7.80;;;;;;;9.30;48.67;101001.50;5403663;32;35465;-68
2022/04/13 02:23:19;;;;;;;19.43;8.27;;;;;;;8.31;50.25;101008.91;5403365;32;35376;-65
2022/04/13 02:26:22;;;;;;;15.77;8.03;;;;;;;8.29;50.40;101011.53;5428552;32;37484;-67
2022/04/13 02:29:24;;;;;;;15.00;8.18;;;;;;;8.38;50.58;101007.94;5385602;32;35049;-67
2022/04/13 02:32:26;;;;;;;14.67;7.57;;;;;;;8.47;49.67;101004.25;5404712;32;34668;-67
2022/04/13 02:35:28;;;;;;;18.27;8.43;;;;;;;7.92;50.56;101013.13;5396291;32;34221;-66
2022/04/13 02:38:31;;;;;;;14.50;7.40;;;;;;;8.23;49.81;101005.56;5422844;32;35849;-72
2022/04/13 02:41:34;;;;;;;17.45;8.05;;;;;;;8.57;48.33;101001.41;5393798;32;35435;-73
2022/04/13 02:44:36;;;;;;;16.37;7.80;;;;;;;7.91;50.25;101004.41;5407983;32;35622;-72
2022/04/13 02:47:39;;;;;;;15.30;8.30;;;;;;;8.68;48.78;101006.41;5412898;32;35014;-66
2022/04/13 02:50:41;;;;;;;16.73;7.67;;;;;;;7.89;51.35;101019.28;5402994;32;35036;-73
2022/04/13 02:53:43;;;;;;;15.10;8.43;;;;;;;7.69;51.79;101010.94;5411018;32;34809;-67
2022/04/13 02:56:45;;;;;;;15.87;7.50;;;;;;;8.21;50.40;101015.22;5389139;32;35011;-72
2022/04/13 02:59:49;;;;;;;15.53;7.93;;;;;;;8.41;49.54;101013.94;5399473;32;35412;-66
2022/04/13 03:02:51;;;;;;;15.60;7.85;;;;;;;8.12;50.89;101013.66;5412211;32;45120;-70
2022/04/13 03:05:53;;;;;;;16.07;7.87;;;;;;;8.00;50.61;101012.12;5385991;32;34386;-72
2022/04/13 03:08:55;;;;;;;15.33;8.00;;;;;;;8.23;49.67;100995.09;5400688;32;35130;-65
2022/04/13 03:11:57;;;;;;;15.37;7.73;;;;;;;8.39;49.30;101012.28;5410940;32;35615;-72
2022/04/13 03:15:01;;;;;;;16.50;6.93;;;;;;;7.78;51.24;101010.75;5406637;32;34338;-72
2022/04/13 03:18:05;;;;;;;12.70;7.25;;;;;;;8.72;48.96;101010.69;5387335;32;37196;-73
2022/04/13 03:21:07;;;;;;;12.93;7.40;;;;;;;8.88;47.94;101005.97;5405238;32;33040;-66
2022/04/13 03:24:09;;;;;;;15.53;7.67;;;;;;;9.12;46.52;101013.28;5415746;32;35296;-72
2022/04/13 03:27:11;;;;;;;17.70;7.97;;;;;;;8.31;48.53;101019.41;5399784;32;34852;-66
2022/04/13 03:30:16;;;;;;;14.87;7.57;;;;;;;8.43;47.77;101018.28;5412930;32;33059;-66
2022/04/13 03:33:18;;;;;;;17.27;7.13;;;;;;;8.60;47.16;101019.69;5411158;32;34983;-72
2022/04/13 03:36:20;;;;;;;14.47;7.67;;;;;;;8.13;48.20;101028.47;5416200;32;35503;-67
2022/04/13 03:39:22;;;;;;;15.63;7.83;;;;;;;7.97;48.63;101032.22;5410144;32;46609;-72
2022/04/13 03:42:25;;;;;;;15.20;7.10;;;;;;;7.91;48.87;101033.22;5375462;32;34706;-66
2022/04/13 03:45:27;;;;;;;12.67;7.13;;;;;;;8.13;48.44;101028.47;5410145;32;34757;-66
2022/04/13 03:48:29;;;;;;;16.83;8.33;;;;;;;8.82;46.59;101040.19;5393204;32;35632;-71
2022/04/13 03:51:31;;;;;;;15.03;6.97;;;;;;;8.42;48.11;101035.78;5426845;32;34777;-74
2022/04/13 03:54:33;;;;;;;14.33;7.20;;;;;;;9.23;45.96;101037.50;5407102;32;34267;-66
2022/04/13 03:57:36;;;;;;;15.87;7.37;;;;;;;8.09;48.31;101052.97;5399708;32;35645;-73
2022/04/13 04:00:38;;;;;;;20.50;8.10;;;;;;;8.00;48.89;101048.75;5397187;32;35491;-71
2022/04/13 04:03:40;;;;;;;19.43;8.20;;;;;;;7.94;49.21;101048.00;5407574;32;34180;-71
2022/04/13 04:06:42;;;;;;;16.63;8.10;;;;;;;7.49;50.86;101055.75;5420622;32;34954;-72
2022/04/13 04:09:45;;;;;;;16.73;7.47;;;;;;;7.59;51.00;101058.16;5394389;32;34642;-71
2022/04/13 04:12:47;;;;;;;16.27;8.10;;;;;;;8.59;48.52;101053.78;5411162;32;34160;-65
2022/04/13 04:15:49;;;;;;;16.73;7.33;;;;;;;9.32;46.26;101051.31;5401465;32;34180;-72
2022/04/13 04:18:51;;;;;;;16.97;8.03;;;;;;;9.25;46.05;101054.97;5416740;32;44714;-65
2022/04/13 04:21:55;;;;;;;14.43;7.47;;;;;;;8.65;47.54;101062.38;5404052;32;34167;-66
2022/04/13 04:25:02;;;;;;;16.27;8.03;;;;;;;9.26;46.27;101056.69;5406152;32;34759;-72
2022/04/13 04:28:06;;;;;;;19.90;8.57;;;;;;;8.06;49.15;101063.50;5417415;32;34189;-72
2022/04/13 04:31:08;;;;;;;15.02;7.28;;;;;;;9.17;46.60;101057.78;5395386;32;34124;-65
2022/04/13 04:34:10;;;;;;;25.90;10.20;;;;;;;9.47;45.71;101067.56;5412710;32;35245;-67
2022/04/13 04:37:12;;;;;;;15.30;7.57;;;;;;;8.99;46.65;101071.28;5398342;32;34304;-67
2022/04/13 04:40:15;;;;;;;18.70;7.47;;;;;;;9.04;47.06;101079.94;5401678;32;34182;-72
2022/04/13 04:43:18;;;;;;;18.95;8.07;;;;;;;8.92;46.76;101073.19;5415041;32;34905;-66
2022/04/13 04:46:20;;;;;;;19.67;9.50;;;;;;;8.98;45.58;101073.06;5394671;32;35225;-72
2022/04/13 04:49:22;;;;;;;19.77;7.93;;;;;;;8.57;47.46;101076.53;5395801;32;43221;-66
2022/04/13 04:52:24;;;;;;;16.63;7.60;;;;;;;8.24;49.01;101083.22;5394107;32;35152;-72
2022/04/13 04:55:26;;;;;;;14.73;7.80;;;;;;;8.67;46.83;101078.94;5413921;32;36213;-66
2022/04/13 04:58:29;;;;;;;23.37;9.17;;;;;;;8.75;47.49;101080.53;5380160;32;34739;-67
2022/04/13 05:01:31;;;;;;;22.53;8.63;;;;;;;9.21;46.05;101086.53;5416294;32;34921;-66
2022/04/13 05:04:33;;;;;;;16.63;8.47;;;;;;;9.58;45.43;101093.53;5411689;32;35232;-66
2022/04/13 05:07:35;;;;;;;21.73;8.17;;;;;;;10.19;43.99;101088.53;5392164;32;34771;-73
2022/04/13 05:10:37;;;;;;;22.20;8.87;;;;;;;10.05;44.55;101096.78;5429028;32;34803;-72
2022/04/13 05:13:39;;;;;;;23.77;9.03;;;;;;;10.11;44.14;101094.00;5409153;32;34427;-66
2022/04/13 05:16:41;;;;;;;17.03;8.23;;;;;;;10.23;43.54;101092.81;5411198;32;34648;-72
2022/04/13 05:19:44;;;;;;;16.33;8.20;;;;;;;9.31;45.40;101096.81;5403034;32;34300;-73
2022/04/13 05:22:46;;;;;;;18.70;8.53;;;;;;;11.05;41.57;101082.59;5403190;32;34533;-67
2022/04/13 05:25:48;;;;;;;14.07;8.37;;;;;;;10.20;43.23;101103.38;5395776;32;34752;-72
2022/04/13 05:28:50;;;;;;;20.43;8.43;;;;;;;11.00;41.17;101091.53;5391511;32;35283;-72
2022/04/13 05:31:53;;;;;;;17.60;9.33;;;;;;;10.89;42.21;101098.91;5409042;32;44950;-66
2022/04/13 05:35:01;;;;;;;22.23;10.10;;;;;;;11.27;40.77;101109.16;5401029;32;34973;-74
2022/04/13 05:38:05;;;;;;;17.70;9.10;;;;;;;11.98;39.88;101105.16;5413379;32;35283;-73
2022/04/13 05:41:07;;;;;;;18.45;9.45;;;;;;;11.95;38.94;101117.56;5410605;32;34797;-68
2022/04/13 05:44:09;;;;;;;15.40;7.50;;;;;;;11.71;38.27;101108.63;5382286;32;34867;-74
2022/04/13 05:47:11;;;;;;;17.37;7.93;;;;;;;12.23;36.76;101114.84;5410155;32;35879;-72
2022/04/13 05:50:14;;;;;;;14.67;7.20;;;;;;;13.34;34.27;101118.72;5402622;32;34293;-73
2022/04/13 05:53:16;;;;;;;14.47;7.67;;;;;;;12.79;34.92;101120.75;5414398;32;36850;-75
2022/04/13 05:56:18;;;;;;;19.23;7.80;;;;;;;15.07;30.27;101114.87;5388592;32;34142;-74
2022/04/13 05:59:21;;;;;;;18.77;8.90;;;;;;;15.03;30.91;101109.78;5405191;32;44803;-72
2022/04/13 06:02:23;;;;;;;14.10;7.97;;;;;;;14.59;31.45;101118.81;5392867;32;35194;-67
2022/04/13 06:05:25;;;;;;;18.35;8.57;;;;;;;13.78;32.91;101126.62;5404896;32;35391;-76
2022/04/13 06:08:28;;;;;;;14.70;8.10;;;;;;;15.53;30.32;101115.34;5390591;32;34174;-76
2022/04/13 06:11:30;;;;;;;13.53;7.77;;;;;;;15.92;29.36;101127.63;5410335;32;34237;-77
2022/04/13 06:14:33;;;;;;;14.68;7.78;;;;;;;15.50;29.81;101128.75;5421033;32;32971;-71
2022/04/13 06:17:40;;;;;;;17.58;9.18;;;;;;;15.94;29.34;101128.41;5391780;32;34091;-80
2022/04/13 06:20:45;;;;;;;16.37;9.27;;;;;;;16.28;28.43;101124.03;5413968;32;34270;-68
2022/04/13 06:23:47;;;;;;;18.62;8.43;;;;;;;16.76;28.03;101123.34;5404159;32;34176;-78
2022/04/13 06:26:50;;;;;;;14.93;8.63;;;;;;;17.08;27.74;101124.25;5394583;32;34100;-66
2022/04/13 06:29:53;;;;;;;19.48;7.97;;;;;;;15.95;28.47;101146.88;5419872;32;44179;-68
2022/04/13 06:32:55;;;;;;;18.90;9.55;;;;;;;18.20;25.79;101140.06;5409231;32;34761;-69
2022/04/13 06:35:58;;;;;;;15.27;10.25;;;;;;;15.72;28.96;101143.66;5417765;32;34175;-73
2022/04/13 06:39:02;;;;;;;19.60;8.45;;;;;;;16.19;28.28;101144.81;5404923;32;35920;-71
2022/04/13 06:42:05;;;;;;;17.00;8.93;;;;;;;17.25;26.74;101140.09;5399369;32;34034;-83
2022/04/13 06:45:10;;;;;;;14.18;7.95;;;;;;;16.20;28.53;101149.16;5374014;32;33985;-69
2022/04/13 06:48:12;;;;;;;15.27;8.50;;;;;;;15.63;28.89;101147.59;5396186;32;34146;-77
2022/04/13 06:51:14;;;;;;;12.75;7.35;;;;;;;16.38;27.61;101149.19;5410941;32;34424;-70
2022/04/13 06:54:16;;;;;;;19.05;8.02;;;;;;;17.54;26.01;101145.63;5404853;32;35963;-64
2022/04/13 06:57:21;;;;;;;12.63;7.72;;;;;;;19.32;23.97;101131.44;5388709;32;44827;-65
2022/04/13 07:00:26;;;;;;;13.15;7.70;;;;;;;18.62;24.75;101141.97;5410003;32;35377;-67
2022/04/13 07:03:29;;;;;;;15.15;8.25;;;;;;;16.66;27.21;101151.25;5412751;32;33946;-73
2022/04/13 07:06:34;;;;;;;12.23;7.75;;;;;;;17.69;25.56;101136.78;5412865;32;34997;-66
2022/04/13 07:09:56;;;;;;;14.80;7.97;;;;;;;17.38;25.93;101147.41;5405189;32;47222;-63
2022/04/13 07:12:58;;;;;;;19.75;8.80;;;;;;;16.72;27.14;101151.81;5411537;32;35222;-65
2022/04/13 07:16:01;;;;;;;13.75;7.07;;;;;;;17.44;26.39;101141.75;5407137;32;35304;-70
2022/04/13 07:19:04;;;;;;;17.42;7.25;;;;;;;18.51;24.44;101143.56;5421467;32;35453;-75
2022/04/13 07:22:06;;;;;;;14.85;8.00;;;;;;;20.12;22.70;101142.25;5411575;32;33355;-79
2022/04/13 07:25:17;;;;;;;14.52;6.87;;;;;;;18.47;24.91;101144.69;5411600;32;35649;-83
2022/04/13 07:28:21;;;;;;;11.40;7.10;;;;;;;17.44;25.42;101147.94;5405513;32;34318;-70
2022/04/13 07:31:23;;;;;;;13.90;7.18;;;;;;;18.40;24.11;101150.38;5400977;32;45887;-81
2022/04/13 07:34:25;;;;;;;17.00;7.62;;;;;;;18.98;23.48;101147.81;5422430;32;35475;-79
2022/04/13 07:37:27;;;;;;;12.18;7.62;;;;;;;19.96;22.05;101153.06;5396825;32;33998;-73
2022/04/13 07:40:29;;;;;;;13.15;6.87;;;;;;;18.54;23.95;101151.34;5406071;32;34039;-74
2022/04/13 07:43:32;;;;;;;10.00;5.40;;;;;;;18.80;22.99;101144.47;5399575;32;34140;-85
2022/04/13 07:46:34;;;;;;;10.50;5.65;;;;;;;18.51;22.92;101155.06;5395162;32;35707;-67
2022/04/13 07:49:37;;;;;;;9.85;5.40;;;;;;;20.87;20.16;101137.97;5410289;32;35861;-66
2022/04/13 07:52:41;;;;;;;11.23;6.10;;;;;;;20.96;20.29;101144.50;5401766;32;34199;-70
2022/04/13 07:55:44;;;;;;;10.00;5.03;;;;;;;20.73;20.39;101146.09;5377691;32;33516;-76
2022/04/13 07:58:46;;;;;;;10.07;5.03;;;;;;;21.73;18.25;101140.69;5387477;32;36671;-68
2022/04/13 08:01:49;;;;;;;10.50;5.50;;;;;;;22.38;18.19;101150.12;5416715;32;35489;-70
2022/04/13 08:04:51;;;;;;;10.20;6.07;;;;;;;20.89;19.73;101152.06;5409447;32;43865;-72
2022/04/13 08:07:53;;;;;;;10.18;5.43;;;;;;;19.80;21.16;101161.22;5396252;32;34305;-76
2022/04/13 08:10:56;;;;;;;9.55;5.28;;;;;;;22.56;17.67;101153.22;5416345;32;34816;-70
2022/04/13 08:13:58;;;;;;;9.93;5.97;;;;;;;20.97;19.63;101147.03;5407834;32;35265;-75
2022/04/13 08:17:03;;;;;;;10.57;5.40;;;;;;;21.34;18.73;101155.16;5420255;32;35373;-79
2022/04/13 08:20:08;;;;;;;10.65;5.25;;;;;;;20.61;19.84;101153.16;5411877;32;36004;-70
2022/04/13 08:23:11;;;;;;;10.88;6.10;;;;;;;20.62;20.22;101143.31;5419393;32;34182;-67
2022/04/13 08:26:13;;;;;;;9.98;5.47;;;;;;;21.17;19.42;101142.94;5413374;32;35722;-67
2022/04/13 08:29:15;;;;;;;11.45;6.50;;;;;;;21.61;19.00;101142.44;5389755;32;33872;-67
2022/04/13 08:32:18;;;;;;;9.98;5.57;;;;;;;24.36;16.08;101141.28;5413286;32;34570;-71
2022/04/13 08:35:23;;;;;;;9.18;5.35;;;;;;;21.33;18.76;101148.09;5395691;32;44419;-77
2022/04/13 08:38:25;;;;;;;8.82;4.30;;;;;;;21.62;18.46;101146.81;5377050;32;34037;-79
2022/04/13 08:41:50;;;;;;;9.15;3.80;;;;;;;24.14;15.73;101139.53;5405722;32;34108;-82
2022/04/13 08:44:53;;;;;;;;;;;;;;;25.11;14.03;101132.94;5396247;32;46218;-66
2022/04/13 08:47:59;;;;;;;10.20;4.00;;;;;;;22.53;16.22;101145.41;5421683;32;34315;-76
2022/04/13 08:51:03;;;;;;;7.72;3.17;;;;;;;24.37;14.57;101126.88;5403797;32;36150;-79
2022/04/13 08:54:19;;;;;;;7.00;3.70;;;;;;;24.57;13.70;101135.91;5391115;32;34224;-71
2022/04/13 08:57:23;;;;;;;9.95;3.95;;;;;;;24.14;14.54;101139.53;5372153;32;43571;-74
2022/04/13 09:00:27;;;;;;;8.40;3.95;;;;;;;23.72;14.70;101131.41;5389598;32;34281;-79
2022/04/13 09:03:42;;;;;;;7.45;4.32;;;;;;;25.01;14.16;101139.25;5400352;32;34169;-81
2022/04/13 09:06:46;;;;;;;7.03;4.35;;;;;;;21.15;17.54;101144.03;5386411;32;32474;-80
2022/04/13 09:09:51;;;;;;;8.18;4.60;;;;;;;23.88;14.91;101136.34;5401073;32;34105;-72
2022/04/13 09:12:53;;;;;;;9.77;4.25;;;;;;;23.78;15.43;101136.25;5396711;32;44505;-67
2022/04/13 09:15:57;;;;;;;7.95;4.43;;;;;;;25.83;13.61;101129.19;5395690;32;34616;-78
2022/04/13 09:19:01;;;;;;;8.98;4.75;;;;;;;23.98;15.50;101125.69;5399431;32;37890;-73
2022/04/13 09:22:08;;;;;;;10.38;4.70;;;;;;;25.25;14.25;101125.50;5400174;32;34267;-73
2022/04/13 09:25:11;;;;;;;8.02;4.87;;;;;;;25.66;13.69;101121.78;5411082;32;34119;-67
2022/04/13 09:28:13;;;;;;;12.00;4.75;;;;;;;26.05;13.50;101124.50;5399442;32;34048;-67
2022/04/13 09:31:15;;;;;;;;;;;;;;;24.75;14.32;101115.50;5417231;32;34074;-70
2022/04/13 09:34:17;;;;;;;9.57;5.70;;;;;;;24.85;14.60;101115.53;5397463;32;34448;-76
2022/04/13 09:37:20;;;;;;;12.05;6.12;;;;;;;26.71;13.46;101109.22;5397906;32;37794;-82
2022/04/13 09:40:34;;;;;;;;;;;;;;;25.62;14.04;101109.56;5395863;32;44610;-78
2022/04/13 09:43:39;;;;;;;10.25;5.62;;;;;;;23.83;16.42;101116.22;5391007;32;35471;-85
2022/04/13 09:46:42;;;;;;;8.75;5.40;;;;;;;26.43;13.67;101110.19;5412694;32;34202;-67
2022/04/13 09:49:46;;;;;;;10.43;5.68;;;;;;;25.64;13.96;101099.53;5403679;32;35211;-80
2022/04/13 09:52:51;;;;;;;10.68;5.22;;;;;;;26.80;13.43;101094.03;5399616;32;35434;-71
2022/04/13 09:56:01;;;;;;;8.45;4.87;;;;;;;28.32;11.74;101096.03;5392903;32;44215;-70
2022/04/13 09:59:06;;;;;;;12.23;7.18;;;;;;;27.60;12.18;101105.13;5387065;32;36268;-69
2022/04/13 10:02:10;;;;;;;9.93;5.12;;;;;;;26.93;13.19;101096.41;5414350;32;33495;-85
2022/04/13 10:05:16;;;;;;;11.23;5.65;;;;;;;25.45;14.01;101094.13;5394608;32;34231;-77
2022/04/13 10:08:24;;;;;;;11.50;5.90;;;;;;;23.58;15.89;101104.81;5404491;32;35051;-85
2022/04/13 10:11:27;;;;;;;9.18;5.53;;;;;;;26.20;13.53;101093.44;5412433;32;46098;-76
2022/04/13 10:14:30;;;;;;;9.32;5.55;;;;;;;26.93;13.11;101085.63;5409846;32;34551;-80
2022/04/13 10:17:34;;;;;;;9.57;5.75;;;;;;;28.62;11.91;101069.53;5411047;32;35316;-71
2022/04/13 10:20:42;;;;;;;13.77;8.30;;;;;;;27.62;12.58;101071.56;5405571;32;36139;-69
2022/04/13 10:23:45;;;;;;;11.98;6.45;;;;;;;23.67;15.99;101090.66;5421639;32;35555;-71
2022/04/13 10:27:02;;;;;;;;;;;;;;;24.00;15.54;101083.44;5411141;32;35962;-72
2022/04/13 10:30:07;;;;;;;12.50;6.00;;;;;;;26.12;13.90;101075.31;5417177;32;34666;-70
2022/04/13 10:33:12;;;;;;;12.43;5.72;;;;;;;25.82;14.04;101073.63;5401205;32;33206;-78
2022/04/13 10:36:15;;;;;;;11.20;5.75;;;;;;;25.28;14.28;101069.56;5381319;32;35405;-68
2022/04/13 10:39:17;;;;;;;14.15;5.90;;;;;;;24.92;14.52;101062.91;5393702;32;34986;-68
2022/04/13 10:42:20;;;;;;;;;;;;;;;28.40;12.38;101051.97;5405763;32;34408;-76
2022/04/13 10:45:22;;;;;;;10.32;5.47;;;;;;;27.24;12.66;101049.25;5423490;32;44064;-68
2022/04/13 10:48:31;;;;;;;11.55;6.32;;;;;;;26.73;13.38;101050.63;5407136;32;36577;-78
2022/04/13 10:51:34;;;;;;;10.50;5.87;;;;;;;24.91;15.15;101052.31;5413813;32;34255;-75
2022/04/13 10:54:44;;;;;;;10.10;5.50;;;;;;;28.75;11.82;101041.03;5397704;32;34223;-75
2022/04/13 10:57:50;;;;;;;11.57;6.30;;;;;;;25.25;14.49;101053.72;5387423;32;36189;-74
2022/04/13 11:00:57;;;;;;;10.85;6.25;;;;;;;27.15;13.14;101028.56;5420279;32;44293;-73
2022/04/13 11:04:00;;;;;;;11.55;6.30;;;;;;;24.62;15.25;101050.37;5402755;32;34123;-74
2022/04/13 11:07:02;;;;;;;10.07;6.30;;;;;;;26.28;14.00;101031.62;5408082;32;34165;-77
2022/04/13 11:10:07;;;;;;;13.23;6.95;;;;;;;25.41;14.80;101042.41;5402479;32;34249;-71
2022/04/13 11:13:09;;;;;;;12.65;7.10;;;;;;;23.82;16.54;101040.22;5396346;32;34768;-73
2022/04/13 11:16:15;;;;;;;11.60;6.55;;;;;;;24.25;16.08;101021.28;5425876;32;34970;-73
2022/04/13 11:19:19;;;;;;;10.57;6.28;;;;;;;23.98;16.65;101029.06;5404970;32;35105;-75
2022/04/13 11:22:21;;;;;;;13.10;7.12;;;;;;;26.62;13.97;101014.94;5423795;32;44453;-76
2022/04/13 11:25:58;;;;;;;;;;;;;;;25.07;15.05;101023.97;5397414;32;34262;-74
2022/04/13 11:29:09;;;;;;;10.73;6.53;;;;;;;24.71;15.48;101019.13;5395195;32;45204;-79
2022/04/13 11:32:15;;;;;;;10.95;6.55;;;;;;;28.07;12.94;101003.09;5420382;32;34295;-75
2022/04/13 11:35:27;;;;;;;12.73;7.00;;;;;;;29.11;11.96;101000.25;5410026;32;37215;-66
2022/04/13 11:38:31;;;;;;;;;;;;;;;28.84;12.20;100994.03;5417162;32;48222;-70
2022/04/13 11:41:33;;;;;;;13.50;7.30;;;;;;;26.69;13.59;101000.69;5410532;32;34858;-72
2022/04/13 11:44:48;;;;;;;10.88;7.00;;;;;;;24.53;15.79;101002.78;5412478;32;34199;-72
2022/04/13 11:47:50;;;;;;;13.60;8.38;;;;;;;27.67;13.14;100988.25;5423241;32;35190;-71
2022/04/13 11:51:30;;;;;;;12.18;7.32;;;;;;;30.52;11.39;100979.19;5413675;32;46140;-66
2022/04/13 11:54:45;;;;;;;14.80;7.60;;;;;;;25.15;15.28;100998.19;5399209;32;34561;-65
2022/04/13 11:58:08;;;;;;;18.10;7.47;;;;;;;27.10;13.89;100987.69;5376930;32;35381;-85
2022/04/13 12:01:14;;;;;;;12.35;7.40;;;;;;;29.32;11.84;100983.56;5409478;32;35397;-78
2022/04/13 12:04:17;;;;;;;11.38;7.18;;;;;;;30.05;11.26;100969.16;5407878;32;35457;-77
2022/04/13 12:07:19;;;;;;;11.80;7.50;;;;;;;28.28;12.40;100981.97;5406378;32;34365;-71
2022/04/13 12:10:24;;;;;;;17.12;7.57;;;;;;;26.64;14.01;100977.88;5418425;32;43452;-81
2022/04/13 12:13:29;;;;;;;13.07;7.87;;;;;;;31.03;10.74;100966.94;5406804;32;35373;-72
2022/04/13 12:16:33;;;;;;;18.73;8.02;;;;;;;28.77;12.17;100957.00;5408537;32;34401;-69
2022/04/13 12:19:40;;;;;;;13.77;7.10;;;;;;;31.81;10.44;100952.28;5420544;32;35612;-77
2022/04/13 12:22:42;;;;;;;10.68;6.85;;;;;;;32.18;9.73;100939.66;5397782;32;34188;-76
2022/04/13 12:25:46;;;;;;;12.90;7.47;;;;;;;28.61;12.19;100944.28;5423892;32;34236;-75
2022/04/13 12:28:49;;;;;;;13.85;6.60;;;;;;;31.30;10.72;100935.75;5409862;32;35605;-80
2022/04/13 12:31:53;;;;;;;14.98;7.10;;;;;;;31.34;10.54;100942.47;5383212;32;44932;-75
2022/04/13 12:34:59;;;;;;;13.62;7.12;;;;;;;30.30;11.03;100937.44;5397770;32;33805;-73
2022/04/13 12:38:01;;;;;;;12.48;7.30;;;;;;;29.91;11.48;100935.47;5393928;32;34605;-76
2022/04/13 12:41:17;;;;;;;12.37;7.12;;;;;;;32.39;9.81;100930.78;5420967;32;34249;-76
2022/04/13 12:44:19;;;;;;;12.07;7.22;;;;;;;28.65;11.75;100925.84;5400589;32;34247;-70
2022/04/13 12:47:24;;;;;;;11.38;7.07;;;;;;;34.01;8.66;100911.06;5417565;32;44325;-73
2022/04/13 12:50:26;;;;;;;14.70;8.00;;;;;;;34.93;8.01;100905.19;5410823;32;32895;-66
2022/04/13 12:53:56;;;;;;;13.23;7.65;;;;;;;31.56;9.93;100910.91;5408704;32;34106;-74
2022/04/13 12:57:00;;;;;;;11.75;7.05;;;;;;;31.21;10.27;100907.75;5386102;32;46794;-77
2022/04/13 13:00:05;;;;;;;11.27;7.43;;;;;;;30.13;10.96;100907.66;5395498;32;33032;-73
2022/04/13 13:03:08;;;;;;;13.70;7.60;;;;;;;28.15;12.71;100907.75;5415210;32;35671;-73
2022/04/13 13:06:14;;;;;;;12.60;7.70;;;;;;;29.18;11.61;100901.16;5393321;32;34413;-65
2022/04/13 13:09:20;;;;;;;12.65;7.55;;;;;;;24.34;15.62;100916.75;5406347;32;35526;-71
2022/04/13 13:12:25;;;;;;;14.55;7.87;;;;;;;23.41;16.83;100907.69;5409793;32;46268;-70
2022/04/13 13:15:37;;;;;;;15.73;7.65;;;;;;;23.50;16.72;100898.88;5402475;32;34095;-70
2022/04/13 13:18:39;;;;;;;19.40;8.27;;;;;;;22.82;17.31;100899.28;5418605;32;34095;-79
2022/04/13 13:22:11;;;;;;;16.00;7.62;;;;;;;23.31;16.99;100896.03;5405227;32;34341;-68
2022/04/13 13:25:15;;;;;;;14.20;7.70;;;;;;;23.64;16.62;100881.66;5397395;32;35543;-69
2022/04/13 13:28:23;;;;;;;14.87;7.78;;;;;;;23.66;16.50;100895.75;5400762;32;35430;-75
2022/04/13 13:31:26;;;;;;;13.85;7.55;;;;;;;22.25;18.17;100892.31;5390252;32;44301;-67
2022/04/13 13:34:28;;;;;;;;;;;;;;;22.60;17.66;100892.97;5415672;32;34282;-79
2022/04/13 13:37:38;;;;;;;13.40;7.10;;;;;;;21.49;18.68;100889.28;5386332;32;34386;-78
2022/04/13 13:40:43;;;;;;;13.38;7.30;;;;;;;21.39;18.81;100887.44;5414482;32;35974;-76
2022/04/13 13:43:46;;;;;;;15.63;7.80;;;;;;;19.94;20.38;100888.22;5401273;32;34247;-77
2022/04/13 13:46:48;;;;;;;13.45;7.32;;;;;;;20.41;19.95;100874.13;5394222;32;35509;-77
2022/04/13 13:49:50;;;;;;;14.65;7.57;;;;;;;21.49;19.08;100875.91;5417636;32;38871;-72
2022/04/13 13:52:55;;;;;;;11.90;6.78;;;;;;;20.91;19.50;100880.28;5393346;32;43529;-69
2022/04/13 13:55:58;;;;;;;13.98;7.72;;;;;;;21.23;19.29;100874.34;5403660;32;35289;-72
2022/04/13 13:59:01;;;;;;;18.62;7.85;;;;;;;20.61;20.22;100872.75;5385135;32;34239;-82
2022/04/13 14:02:04;;;;;;;16.95;6.85;;;;;;;20.47;20.62;100875.53;5417246;32;34396;-80
2022/04/13 14:05:07;;;;;;;14.70;7.75;;;;;;;21.61;19.15;100874.09;5409460;32;34035;-72
2022/04/13 14:08:11;;;;;;;15.80;7.68;;;;;;;21.19;19.24;100863.06;5397489;32;35895;-73
2022/04/13 14:11:13;;;;;;;15.70;7.80;;;;;;;21.13;19.38;100865.34;5418705;32;35154;-71
2022/04/13 14:14:15;;;;;;;14.27;8.50;;;;;;;20.98;19.60;100860.16;5406142;32;35667;-69